sensor_id;sensor_type;location;lat;lon;timestamp;temperature;humidity
11152;DHT22;5630;49.342;10.802;2024-01-25T00:01:25;7.70;99.90
11152;DHT22;5630;49.342;10.802;2024-01-25T00:03:51;7.70;99.90
11152;DHT22;5630;49.342;10.802;2024-01-25T00:06:16;7.70;99.90
11152;DHT22;5630;49.342;10.802;2024-01-25T00:08:42;7.70;99.90
11152;DHT22;5630;49.342;10.802;2024-01-25T00:11:08;7.70;99.90
11152;DHT22;5630;49.342;10.802;2024-01-25T00:13:34;7.70;99.90
11152;DHT22;5630;49.342;10.802;2024-01-25T00:16:00;7.70;99.90
11152;DHT22;5630;49.342;10.802;2024-01-25T00:18:26;7.70;99.90
11152;DHT22;5630;49.342;10.802;2024-01-25T00:20:51;7.70;99.90
11152;DHT22;5630;49.342;10.802;2024-01-25T00:23:17;7.70;99.90
11152;DHT22;5630;49.342;10.802;2024-01-25T00:25:43;7.70;99.90
11152;DHT22;5630;49.342;10.802;2024-01-25T00:28:08;7.70;99.90
11152;DHT22;5630;49.342;10.802;2024-01-25T00:30:34;7.60;99.90
11152;DHT22;5630;49.342;10.802;2024-01-25T00:32:59;7.60;99.90
11152;DHT22;5630;49.342;10.802;2024-01-25T00:35:27;7.60;99.90
11152;DHT22;5630;49.342;10.802;2024-01-25T00:37:53;7.70;99.90
11152;DHT22;5630;49.342;10.802;2024-01-25T00:40:18;7.70;99.90
11152;DHT22;5630;49.342;10.802;2024-01-25T00:42:45;7.70;99.90
11152;DHT22;5630;49.342;10.802;2024-01-25T00:45:19;7.60;99.90
11152;DHT22;5630;49.342;10.802;2024-01-25T00:47:45;7.60;99.90
11152;DHT22;5630;49.342;10.802;2024-01-25T00:50:11;7.60;99.90
11152;DHT22;5630;49.342;10.802;2024-01-25T00:52:37;7.60;99.90
11152;DHT22;5630;49.342;10.802;2024-01-25T00:55:03;7.60;99.90
11152;DHT22;5630;49.342;10.802;2024-01-25T00:57:29;7.60;99.90
11152;DHT22;5630;49.342;10.802;2024-01-25T00:59:55;7.60;99.90
11152;DHT22;5630;49.342;10.802;2024-01-25T01:02:22;7.60;99.90
11152;DHT22;5630;49.342;10.802;2024-01-25T01:04:48;7.60;99.90
11152;DHT22;5630;49.342;10.802;2024-01-25T01:07:14;7.60;99.90
11152;DHT22;5630;49.342;10.802;2024-01-25T01:09:39;7.60;99.90
11152;DHT22;5630;49.342;10.802;2024-01-25T01:12:06;7.60;99.90
11152;DHT22;5630;49.342;10.802;2024-01-25T01:14:32;7.60;99.90
11152;DHT22;5630;49.342;10.802;2024-01-25T01:16:57;7.50;99.90
11152;DHT22;5630;49.342;10.802;2024-01-25T01:19:23;7.50;99.90
11152;DHT22;5630;49.342;10.802;2024-01-25T01:21:48;7.50;99.90
11152;DHT22;5630;49.342;10.802;2024-01-25T01:24:14;7.50;99.90
11152;DHT22;5630;49.342;10.802;2024-01-25T01:26:39;7.50;99.90
11152;DHT22;5630;49.342;10.802;2024-01-25T01:29:07;7.50;99.90
11152;DHT22;5630;49.342;10.802;2024-01-25T01:31:33;7.50;99.90
11152;DHT22;5630;49.342;10.802;2024-01-25T01:33:59;7.50;99.90
11152;DHT22;5630;49.342;10.802;2024-01-25T01:36:25;7.50;99.90
11152;DHT22;5630;49.342;10.802;2024-01-25T01:38:51;7.40;99.90
11152;DHT22;5630;49.342;10.802;2024-01-25T01:41:17;7.50;99.90
11152;DHT22;5630;49.342;10.802;2024-01-25T01:43:42;7.40;99.90
11152;DHT22;5630;49.342;10.802;2024-01-25T01:46:26;7.50;99.90
11152;DHT22;5630;49.342;10.802;2024-01-25T01:48:54;7.40;99.90
11152;DHT22;5630;49.342;10.802;2024-01-25T01:51:20;7.40;99.90
11152;DHT22;5630;49.342;10.802;2024-01-25T01:53:46;7.40;99.90
11152;DHT22;5630;49.342;10.802;2024-01-25T01:56:11;7.30;99.90
11152;DHT22;5630;49.342;10.802;2024-01-25T01:58:38;7.40;99.90
11152;DHT22;5630;49.342;10.802;2024-01-25T02:01:04;7.30;99.90
11152;DHT22;5630;49.342;10.802;2024-01-25T02:03:30;7.30;99.90
11152;DHT22;5630;49.342;10.802;2024-01-25T02:05:55;7.30;99.90
11152;DHT22;5630;49.342;10.802;2024-01-25T02:08:24;7.30;99.90
11152;DHT22;5630;49.342;10.802;2024-01-25T02:10:51;7.20;99.90
11152;DHT22;5630;49.342;10.802;2024-01-25T02:13:16;7.20;99.90
11152;DHT22;5630;49.342;10.802;2024-01-25T02:15:42;7.20;99.90
11152;DHT22;5630;49.342;10.802;2024-01-25T02:18:07;7.20;99.90
11152;DHT22;5630;49.342;10.802;2024-01-25T02:20:33;7.20;99.90
11152;DHT22;5630;49.342;10.802;2024-01-25T02:22:58;7.20;99.90
11152;DHT22;5630;49.342;10.802;2024-01-25T02:25:24;7.20;99.90
11152;DHT22;5630;49.342;10.802;2024-01-25T02:27:50;7.20;99.90
11152;DHT22;5630;49.342;10.802;2024-01-25T02:30:15;7.20;99.90
11152;DHT22;5630;49.342;10.802;2024-01-25T02:32:43;7.20;99.90
11152;DHT22;5630;49.342;10.802;2024-01-25T02:35:09;7.20;99.90
11152;DHT22;5630;49.342;10.802;2024-01-25T02:37:35;7.10;99.90
11152;DHT22;5630;49.342;10.802;2024-01-25T02:40:00;7.20;99.90
11152;DHT22;5630;49.342;10.802;2024-01-25T02:42:26;7.20;99.90
11152;DHT22;5630;49.342;10.802;2024-01-25T02:44:51;7.20;99.90
11152;DHT22;5630;49.342;10.802;2024-01-25T02:47:17;7.20;99.90
11152;DHT22;5630;49.342;10.802;2024-01-25T02:49:44;7.20;99.90
11152;DHT22;5630;49.342;10.802;2024-01-25T02:52:09;7.20;99.90
11152;DHT22;5630;49.342;10.802;2024-01-25T02:54:35;7.20;99.90
11152;DHT22;5630;49.342;10.802;2024-01-25T02:57:04;7.10;99.90
11152;DHT22;5630;49.342;10.802;2024-01-25T02:59:30;7.10;99.90
11152;DHT22;5630;49.342;10.802;2024-01-25T03:01:55;7.10;99.90
11152;DHT22;5630;49.342;10.802;2024-01-25T03:04:21;7.10;99.90
11152;DHT22;5630;49.342;10.802;2024-01-25T03:06:46;7.00;99.90
11152;DHT22;5630;49.342;10.802;2024-01-25T03:09:12;7.00;99.90
11152;DHT22;5630;49.342;10.802;2024-01-25T03:11:38;7.00;99.90
11152;DHT22;5630;49.342;10.802;2024-01-25T03:14:04;7.00;99.90
11152;DHT22;5630;49.342;10.802;2024-01-25T03:16:29;7.00;99.90
11152;DHT22;5630;49.342;10.802;2024-01-25T03:18:55;7.00;99.90
11152;DHT22;5630;49.342;10.802;2024-01-25T03:21:20;7.00;99.90
11152;DHT22;5630;49.342;10.802;2024-01-25T03:23:46;7.00;99.90
11152;DHT22;5630;49.342;10.802;2024-01-25T03:26:11;7.00;99.90
11152;DHT22;5630;49.342;10.802;2024-01-25T03:28:37;7.00;99.90
11152;DHT22;5630;49.342;10.802;2024-01-25T03:31:04;7.00;99.90
11152;DHT22;5630;49.342;10.802;2024-01-25T03:33:30;7.00;99.90
11152;DHT22;5630;49.342;10.802;2024-01-25T03:36:01;7.00;99.90
11152;DHT22;5630;49.342;10.802;2024-01-25T03:38:28;7.10;99.90
11152;DHT22;5630;49.342;10.802;2024-01-25T03:40:53;7.00;99.90
11152;DHT22;5630;49.342;10.802;2024-01-25T03:43:19;7.00;99.90
11152;DHT22;5630;49.342;10.802;2024-01-25T03:45:45;7.00;99.90
11152;DHT22;5630;49.342;10.802;2024-01-25T03:48:10;6.90;99.90
11152;DHT22;5630;49.342;10.802;2024-01-25T03:50:36;7.00;99.90
11152;DHT22;5630;49.342;10.802;2024-01-25T03:53:01;6.90;99.90
11152;DHT22;5630;49.342;10.802;2024-01-25T03:55:27;6.90;99.90
11152;DHT22;5630;49.342;10.802;2024-01-25T03:57:52;6.90;99.90
11152;DHT22;5630;49.342;10.802;2024-01-25T04:00:18;6.90;99.90
11152;DHT22;5630;49.342;10.802;2024-01-25T04:02:44;6.90;99.90
11152;DHT22;5630;49.342;10.802;2024-01-25T04:05:09;6.90;99.90
11152;DHT22;5630;49.342;10.802;2024-01-25T04:07:35;6.80;99.90
11152;DHT22;5630;49.342;10.802;2024-01-25T04:10:01;6.80;99.90
11152;DHT22;5630;49.342;10.802;2024-01-25T04:12:27;6.90;99.90
11152;DHT22;5630;49.342;10.802;2024-01-25T04:14:53;6.80;99.90
11152;DHT22;5630;49.342;10.802;2024-01-25T04:17:18;6.80;99.90
11152;DHT22;5630;49.342;10.802;2024-01-25T04:19:44;6.90;99.90
11152;DHT22;5630;49.342;10.802;2024-01-25T04:22:09;6.90;99.90
11152;DHT22;5630;49.342;10.802;2024-01-25T04:24:35;6.80;99.90
11152;DHT22;5630;49.342;10.802;2024-01-25T04:27:01;6.90;99.90
11152;DHT22;5630;49.342;10.802;2024-01-25T04:29:26;6.90;99.90
11152;DHT22;5630;49.342;10.802;2024-01-25T04:31:52;7.00;99.90
11152;DHT22;5630;49.342;10.802;2024-01-25T04:34:18;6.90;99.90
11152;DHT22;5630;49.342;10.802;2024-01-25T04:36:44;6.90;99.90
11152;DHT22;5630;49.342;10.802;2024-01-25T04:39:09;6.90;99.90
11152;DHT22;5630;49.342;10.802;2024-01-25T04:41:36;6.90;99.90
11152;DHT22;5630;49.342;10.802;2024-01-25T04:44:01;6.90;99.90
11152;DHT22;5630;49.342;10.802;2024-01-25T04:46:27;6.90;99.90
11152;DHT22;5630;49.342;10.802;2024-01-25T04:48:53;6.90;99.90
11152;DHT22;5630;49.342;10.802;2024-01-25T04:51:19;6.90;99.90
11152;DHT22;5630;49.342;10.802;2024-01-25T04:53:47;6.90;99.90
11152;DHT22;5630;49.342;10.802;2024-01-25T04:56:13;6.90;99.90
11152;DHT22;5630;49.342;10.802;2024-01-25T04:58:39;6.80;99.90
11152;DHT22;5630;49.342;10.802;2024-01-25T05:01:05;6.80;99.90
11152;DHT22;5630;49.342;10.802;2024-01-25T05:03:32;6.80;99.90
11152;DHT22;5630;49.342;10.802;2024-01-25T05:05:58;6.80;99.90
11152;DHT22;5630;49.342;10.802;2024-01-25T05:08:23;6.70;99.90
11152;DHT22;5630;49.342;10.802;2024-01-25T05:10:49;6.70;99.90
11152;DHT22;5630;49.342;10.802;2024-01-25T05:13:15;6.70;99.90
11152;DHT22;5630;49.342;10.802;2024-01-25T05:15:40;6.70;99.90
11152;DHT22;5630;49.342;10.802;2024-01-25T05:18:06;6.60;99.90
11152;DHT22;5630;49.342;10.802;2024-01-25T05:20:32;6.60;99.90
11152;DHT22;5630;49.342;10.802;2024-01-25T05:22:59;6.50;99.90
11152;DHT22;5630;49.342;10.802;2024-01-25T05:25:25;6.60;99.90
11152;DHT22;5630;49.342;10.802;2024-01-25T05:27:51;6.60;99.90
11152;DHT22;5630;49.342;10.802;2024-01-25T05:30:17;6.60;99.90
11152;DHT22;5630;49.342;10.802;2024-01-25T05:32:43;6.50;99.90
11152;DHT22;5630;49.342;10.802;2024-01-25T05:35:09;6.50;99.90
11152;DHT22;5630;49.342;10.802;2024-01-25T05:37:35;6.60;99.90
11152;DHT22;5630;49.342;10.802;2024-01-25T05:40:01;6.50;99.90
11152;DHT22;5630;49.342;10.802;2024-01-25T05:42:26;6.50;99.90
11152;DHT22;5630;49.342;10.802;2024-01-25T05:44:52;6.50;99.90
11152;DHT22;5630;49.342;10.802;2024-01-25T05:47:17;6.50;99.90
11152;DHT22;5630;49.342;10.802;2024-01-25T05:49:43;6.50;99.90
11152;DHT22;5630;49.342;10.802;2024-01-25T05:52:08;6.50;99.90
11152;DHT22;5630;49.342;10.802;2024-01-25T05:54:34;6.50;99.90
11152;DHT22;5630;49.342;10.802;2024-01-25T05:56:59;6.50;99.90
11152;DHT22;5630;49.342;10.802;2024-01-25T05:59:25;6.40;99.90
11152;DHT22;5630;49.342;10.802;2024-01-25T06:01:50;6.40;99.90
11152;DHT22;5630;49.342;10.802;2024-01-25T06:04:16;6.40;99.90
11152;DHT22;5630;49.342;10.802;2024-01-25T06:06:41;6.30;99.90
11152;DHT22;5630;49.342;10.802;2024-01-25T06:09:07;6.40;99.90
11152;DHT22;5630;49.342;10.802;2024-01-25T06:11:34;6.40;99.90
11152;DHT22;5630;49.342;10.802;2024-01-25T06:14:00;6.40;99.90
11152;DHT22;5630;49.342;10.802;2024-01-25T06:16:26;6.40;99.90
11152;DHT22;5630;49.342;10.802;2024-01-25T06:18:51;6.40;99.90
11152;DHT22;5630;49.342;10.802;2024-01-25T06:21:17;6.40;99.90
11152;DHT22;5630;49.342;10.802;2024-01-25T06:23:43;6.40;99.90
11152;DHT22;5630;49.342;10.802;2024-01-25T06:26:08;6.40;99.90
11152;DHT22;5630;49.342;10.802;2024-01-25T06:28:34;6.40;99.90
11152;DHT22;5630;49.342;10.802;2024-01-25T06:31:01;6.30;99.90
11152;DHT22;5630;49.342;10.802;2024-01-25T06:33:26;6.30;99.90
11152;DHT22;5630;49.342;10.802;2024-01-25T06:35:55;6.20;99.90
11152;DHT22;5630;49.342;10.802;2024-01-25T06:38:20;6.20;99.90
11152;DHT22;5630;49.342;10.802;2024-01-25T06:40:46;6.10;99.90
11152;DHT22;5630;49.342;10.802;2024-01-25T06:43:11;6.10;99.90
11152;DHT22;5630;49.342;10.802;2024-01-25T06:45:37;6.10;99.90
11152;DHT22;5630;49.342;10.802;2024-01-25T06:48:06;6.10;99.90
11152;DHT22;5630;49.342;10.802;2024-01-25T06:50:31;6.10;99.90
11152;DHT22;5630;49.342;10.802;2024-01-25T06:52:57;6.10;99.90
11152;DHT22;5630;49.342;10.802;2024-01-25T06:55:23;6.10;99.90
11152;DHT22;5630;49.342;10.802;2024-01-25T06:57:48;6.10;99.90
11152;DHT22;5630;49.342;10.802;2024-01-25T07:00:15;6.20;99.90
11152;DHT22;5630;49.342;10.802;2024-01-25T07:02:41;7.70;99.90
11152;DHT22;5630;49.342;10.802;2024-01-25T07:05:08;8.30;99.90
11152;DHT22;5630;49.342;10.802;2024-01-25T07:07:34;8.00;99.90
11152;DHT22;5630;49.342;10.802;2024-01-25T07:09:59;7.70;99.90
11152;DHT22;5630;49.342;10.802;2024-01-25T07:12:25;7.50;99.90
11152;DHT22;5630;49.342;10.802;2024-01-25T07:14:51;7.80;99.90
11152;DHT22;5630;49.342;10.802;2024-01-25T07:17:16;8.20;99.90
11152;DHT22;5630;49.342;10.802;2024-01-25T07:19:42;7.80;99.90
11152;DHT22;5630;49.342;10.802;2024-01-25T07:22:07;7.50;99.90
11152;DHT22;5630;49.342;10.802;2024-01-25T07:24:33;7.40;99.90
11152;DHT22;5630;49.342;10.802;2024-01-25T07:26:58;7.00;99.90
11152;DHT22;5630;49.342;10.802;2024-01-25T07:29:24;6.90;99.90
11152;DHT22;5630;49.342;10.802;2024-01-25T07:31:50;6.70;99.90
11152;DHT22;5630;49.342;10.802;2024-01-25T07:34:15;6.70;99.90
11152;DHT22;5630;49.342;10.802;2024-01-25T07:36:41;6.50;99.90
11152;DHT22;5630;49.342;10.802;2024-01-25T07:39:07;6.30;99.90
11152;DHT22;5630;49.342;10.802;2024-01-25T07:41:33;6.20;99.90
11152;DHT22;5630;49.342;10.802;2024-01-25T07:43:59;6.20;99.90
11152;DHT22;5630;49.342;10.802;2024-01-25T07:46:25;6.10;99.90
11152;DHT22;5630;49.342;10.802;2024-01-25T07:48:50;6.10;99.90
11152;DHT22;5630;49.342;10.802;2024-01-25T07:51:16;6.10;99.90
11152;DHT22;5630;49.342;10.802;2024-01-25T07:53:41;6.10;99.90
11152;DHT22;5630;49.342;10.802;2024-01-25T07:56:07;6.10;99.90
11152;DHT22;5630;49.342;10.802;2024-01-25T07:58:35;6.10;99.90
11152;DHT22;5630;49.342;10.802;2024-01-25T08:01:03;6.20;99.90
11152;DHT22;5630;49.342;10.802;2024-01-25T08:03:29;6.20;99.90
11152;DHT22;5630;49.342;10.802;2024-01-25T08:05:55;6.20;99.90
11152;DHT22;5630;49.342;10.802;2024-01-25T08:08:20;6.20;99.90
11152;DHT22;5630;49.342;10.802;2024-01-25T08:10:46;6.30;99.90
11152;DHT22;5630;49.342;10.802;2024-01-25T08:13:12;6.20;99.90
11152;DHT22;5630;49.342;10.802;2024-01-25T08:15:38;6.30;99.90
11152;DHT22;5630;49.342;10.802;2024-01-25T08:18:03;6.30;99.90
11152;DHT22;5630;49.342;10.802;2024-01-25T08:20:29;6.40;99.90
11152;DHT22;5630;49.342;10.802;2024-01-25T08:22:55;6.40;99.90
11152;DHT22;5630;49.342;10.802;2024-01-25T08:25:20;6.40;99.90
11152;DHT22;5630;49.342;10.802;2024-01-25T08:27:46;6.50;99.90
11152;DHT22;5630;49.342;10.802;2024-01-25T08:30:12;6.60;99.90
11152;DHT22;5630;49.342;10.802;2024-01-25T08:32:37;6.60;99.90
11152;DHT22;5630;49.342;10.802;2024-01-25T08:35:03;6.60;99.90
11152;DHT22;5630;49.342;10.802;2024-01-25T08:37:29;6.70;99.90
11152;DHT22;5630;49.342;10.802;2024-01-25T08:39:55;6.80;99.90
11152;DHT22;5630;49.342;10.802;2024-01-25T08:42:20;6.60;99.90
11152;DHT22;5630;49.342;10.802;2024-01-25T08:44:47;6.70;99.90
11152;DHT22;5630;49.342;10.802;2024-01-25T08:47:17;6.70;99.90
11152;DHT22;5630;49.342;10.802;2024-01-25T08:49:43;6.70;99.90
11152;DHT22;5630;49.342;10.802;2024-01-25T08:52:08;6.80;99.90
11152;DHT22;5630;49.342;10.802;2024-01-25T08:54:34;6.80;99.90
11152;DHT22;5630;49.342;10.802;2024-01-25T08:57:03;6.80;99.90
11152;DHT22;5630;49.342;10.802;2024-01-25T08:59:28;6.90;99.90
11152;DHT22;5630;49.342;10.802;2024-01-25T09:01:56;6.90;99.90
11152;DHT22;5630;49.342;10.802;2024-01-25T09:04:22;7.00;99.90
11152;DHT22;5630;49.342;10.802;2024-01-25T09:06:47;7.00;99.90
11152;DHT22;5630;49.342;10.802;2024-01-25T09:09:13;7.10;99.90
11152;DHT22;5630;49.342;10.802;2024-01-25T09:11:38;7.20;99.90
11152;DHT22;5630;49.342;10.802;2024-01-25T09:14:04;7.20;99.90
11152;DHT22;5630;49.342;10.802;2024-01-25T09:16:29;7.20;99.90
11152;DHT22;5630;49.342;10.802;2024-01-25T09:18:56;7.30;99.90
11152;DHT22;5630;49.342;10.802;2024-01-25T09:21:21;7.30;99.90
11152;DHT22;5630;49.342;10.802;2024-01-25T09:23:47;7.40;99.90
11152;DHT22;5630;49.342;10.802;2024-01-25T09:26:12;7.50;99.90
11152;DHT22;5630;49.342;10.802;2024-01-25T09:28:38;7.40;99.90
11152;DHT22;5630;49.342;10.802;2024-01-25T09:31:04;7.50;99.90
11152;DHT22;5630;49.342;10.802;2024-01-25T09:33:29;7.50;99.90
11152;DHT22;5630;49.342;10.802;2024-01-25T09:35:55;7.60;99.90
11152;DHT22;5630;49.342;10.802;2024-01-25T09:38:21;7.70;99.90
11152;DHT22;5630;49.342;10.802;2024-01-25T09:40:47;7.60;99.90
11152;DHT22;5630;49.342;10.802;2024-01-25T09:43:14;7.60;99.90
11152;DHT22;5630;49.342;10.802;2024-01-25T09:45:41;7.70;99.90
11152;DHT22;5630;49.342;10.802;2024-01-25T09:48:07;7.70;99.90
11152;DHT22;5630;49.342;10.802;2024-01-25T09:50:32;7.70;99.90
11152;DHT22;5630;49.342;10.802;2024-01-25T09:52:59;7.50;99.90
11152;DHT22;5630;49.342;10.802;2024-01-25T09:55:26;7.40;99.90
11152;DHT22;5630;49.342;10.802;2024-01-25T09:57:55;7.40;99.90
11152;DHT22;5630;49.342;10.802;2024-01-25T10:00:22;7.50;99.90
11152;DHT22;5630;49.342;10.802;2024-01-25T10:02:49;7.70;99.90
11152;DHT22;5630;49.342;10.802;2024-01-25T10:05:17;7.80;99.90
11152;DHT22;5630;49.342;10.802;2024-01-25T10:07:45;7.80;99.90
11152;DHT22;5630;49.342;10.802;2024-01-25T10:10:12;7.80;99.90
11152;DHT22;5630;49.342;10.802;2024-01-25T10:12:39;7.80;99.90
11152;DHT22;5630;49.342;10.802;2024-01-25T10:15:05;7.70;99.90
11152;DHT22;5630;49.342;10.802;2024-01-25T10:17:32;7.80;99.90
11152;DHT22;5630;49.342;10.802;2024-01-25T10:19:58;7.70;99.90
11152;DHT22;5630;49.342;10.802;2024-01-25T10:22:24;7.60;99.90
11152;DHT22;5630;49.342;10.802;2024-01-25T10:24:50;7.60;99.90
11152;DHT22;5630;49.342;10.802;2024-01-25T10:27:16;7.70;99.90
11152;DHT22;5630;49.342;10.802;2024-01-25T10:32:08;8.00;99.90
11152;DHT22;5630;49.342;10.802;2024-01-25T10:34:37;8.10;99.90
11152;DHT22;5630;49.342;10.802;2024-01-25T10:37:06;8.20;99.90
11152;DHT22;5630;49.342;10.802;2024-01-25T10:39:32;8.20;99.90
11152;DHT22;5630;49.342;10.802;2024-01-25T10:42:01;8.30;99.90
11152;DHT22;5630;49.342;10.802;2024-01-25T10:44:27;8.20;99.90
11152;DHT22;5630;49.342;10.802;2024-01-25T10:46:53;8.30;99.90
11152;DHT22;5630;49.342;10.802;2024-01-25T10:49:22;8.30;99.90
11152;DHT22;5630;49.342;10.802;2024-01-25T10:51:48;8.30;99.90
11152;DHT22;5630;49.342;10.802;2024-01-25T10:54:15;8.40;99.90
11152;DHT22;5630;49.342;10.802;2024-01-25T10:56:41;8.60;99.90
11152;DHT22;5630;49.342;10.802;2024-01-25T10:59:07;8.70;99.90
11152;DHT22;5630;49.342;10.802;2024-01-25T11:01:34;8.70;99.90
11152;DHT22;5630;49.342;10.802;2024-01-25T11:04:00;8.80;99.90
11152;DHT22;5630;49.342;10.802;2024-01-25T11:06:27;9.00;99.90
11152;DHT22;5630;49.342;10.802;2024-01-25T11:09:04;9.10;99.90
11152;DHT22;5630;49.342;10.802;2024-01-25T11:11:31;9.10;99.90
11152;DHT22;5630;49.342;10.802;2024-01-25T11:13:58;9.10;99.90
11152;DHT22;5630;49.342;10.802;2024-01-25T11:16:32;9.00;99.90
11152;DHT22;5630;49.342;10.802;2024-01-25T11:19:00;9.00;99.90
11152;DHT22;5630;49.342;10.802;2024-01-25T11:21:43;9.10;99.90
11152;DHT22;5630;49.342;10.802;2024-01-25T11:26:43;9.10;99.90
11152;DHT22;5630;49.342;10.802;2024-01-25T11:29:09;9.10;99.90
11152;DHT22;5630;49.342;10.802;2024-01-25T11:31:35;9.20;99.90
11152;DHT22;5630;49.342;10.802;2024-01-25T11:34:01;9.30;99.90
11152;DHT22;5630;49.342;10.802;2024-01-25T11:36:27;9.40;99.90
11152;DHT22;5630;49.342;10.802;2024-01-25T11:38:53;9.40;99.90
11152;DHT22;5630;49.342;10.802;2024-01-25T11:41:19;9.30;99.90
11152;DHT22;5630;49.342;10.802;2024-01-25T11:43:47;9.30;99.90
11152;DHT22;5630;49.342;10.802;2024-01-25T11:46:13;9.20;99.90
11152;DHT22;5630;49.342;10.802;2024-01-25T11:48:42;9.30;99.90
11152;DHT22;5630;49.342;10.802;2024-01-25T11:51:11;9.40;99.90
11152;DHT22;5630;49.342;10.802;2024-01-25T11:53:37;9.50;99.90
11152;DHT22;5630;49.342;10.802;2024-01-25T11:56:07;9.80;99.90
11152;DHT22;5630;49.342;10.802;2024-01-25T11:58:36;9.90;99.90
11152;DHT22;5630;49.342;10.802;2024-01-25T12:01:03;9.80;99.90
11152;DHT22;5630;49.342;10.802;2024-01-25T12:03:32;9.50;99.90
11152;DHT22;5630;49.342;10.802;2024-01-25T12:05:57;9.50;99.90
11152;DHT22;5630;49.342;10.802;2024-01-25T12:08:24;9.60;99.90
11152;DHT22;5630;49.342;10.802;2024-01-25T12:10:50;9.70;99.90
11152;DHT22;5630;49.342;10.802;2024-01-25T12:13:16;9.70;99.90
11152;DHT22;5630;49.342;10.802;2024-01-25T12:15:42;9.80;99.90
11152;DHT22;5630;49.342;10.802;2024-01-25T12:18:08;9.70;99.90
11152;DHT22;5630;49.342;10.802;2024-01-25T12:20:36;9.80;99.90
11152;DHT22;5630;49.342;10.802;2024-01-25T12:23:02;9.80;99.90
11152;DHT22;5630;49.342;10.802;2024-01-25T12:25:27;9.70;99.90
11152;DHT22;5630;49.342;10.802;2024-01-25T12:27:53;9.60;99.90
11152;DHT22;5630;49.342;10.802;2024-01-25T12:30:19;9.30;99.90
11152;DHT22;5630;49.342;10.802;2024-01-25T12:32:44;9.40;99.90
11152;DHT22;5630;49.342;10.802;2024-01-25T12:35:12;9.40;99.90
11152;DHT22;5630;49.342;10.802;2024-01-25T12:37:38;9.20;99.90
11152;DHT22;5630;49.342;10.802;2024-01-25T12:40:04;9.20;99.90
11152;DHT22;5630;49.342;10.802;2024-01-25T12:42:30;9.00;99.90
11152;DHT22;5630;49.342;10.802;2024-01-25T12:44:56;9.10;99.90
11152;DHT22;5630;49.342;10.802;2024-01-25T12:47:21;9.20;99.90
11152;DHT22;5630;49.342;10.802;2024-01-25T12:49:47;9.30;99.90
11152;DHT22;5630;49.342;10.802;2024-01-25T12:52:14;9.20;99.90
11152;DHT22;5630;49.342;10.802;2024-01-25T12:54:41;9.30;99.90
11152;DHT22;5630;49.342;10.802;2024-01-25T12:57:07;9.30;99.90
11152;DHT22;5630;49.342;10.802;2024-01-25T12:59:34;9.40;99.90
11152;DHT22;5630;49.342;10.802;2024-01-25T13:02:00;9.40;99.90
11152;DHT22;5630;49.342;10.802;2024-01-25T13:04:26;9.50;99.90
11152;DHT22;5630;49.342;10.802;2024-01-25T13:06:53;9.50;99.90
11152;DHT22;5630;49.342;10.802;2024-01-25T13:09:25;9.60;99.90
11152;DHT22;5630;49.342;10.802;2024-01-25T13:11:50;9.60;99.90
11152;DHT22;5630;49.342;10.802;2024-01-25T13:14:19;9.60;99.90
11152;DHT22;5630;49.342;10.802;2024-01-25T13:16:44;9.70;99.90
11152;DHT22;5630;49.342;10.802;2024-01-25T13:19:10;9.70;99.90
11152;DHT22;5630;49.342;10.802;2024-01-25T13:21:37;9.70;99.90
11152;DHT22;5630;49.342;10.802;2024-01-25T13:24:03;9.60;99.90
11152;DHT22;5630;49.342;10.802;2024-01-25T13:26:28;9.70;99.90
11152;DHT22;5630;49.342;10.802;2024-01-25T13:28:54;9.70;99.90
11152;DHT22;5630;49.342;10.802;2024-01-25T13:31:19;9.70;99.90
11152;DHT22;5630;49.342;10.802;2024-01-25T13:33:45;9.60;99.90
11152;DHT22;5630;49.342;10.802;2024-01-25T13:36:11;9.60;99.90
11152;DHT22;5630;49.342;10.802;2024-01-25T13:38:39;9.40;99.90
11152;DHT22;5630;49.342;10.802;2024-01-25T13:41:04;9.50;99.90
11152;DHT22;5630;49.342;10.802;2024-01-25T13:43:30;9.50;99.90
11152;DHT22;5630;49.342;10.802;2024-01-25T13:45:55;9.30;99.90
11152;DHT22;5630;49.342;10.802;2024-01-25T13:48:21;9.40;99.90
11152;DHT22;5630;49.342;10.802;2024-01-25T13:50:47;9.40;99.90
11152;DHT22;5630;49.342;10.802;2024-01-25T13:53:12;9.40;99.90
11152;DHT22;5630;49.342;10.802;2024-01-25T13:55:38;10.00;99.90
11152;DHT22;5630;49.342;10.802;2024-01-25T13:58:03;9.90;99.90
11152;DHT22;5630;49.342;10.802;2024-01-25T14:00:29;9.80;99.90
11152;DHT22;5630;49.342;10.802;2024-01-25T14:02:55;9.70;99.90
11152;DHT22;5630;49.342;10.802;2024-01-25T14:05:20;9.70;99.90
11152;DHT22;5630;49.342;10.802;2024-01-25T14:07:46;9.70;99.90
11152;DHT22;5630;49.342;10.802;2024-01-25T14:10:11;9.60;99.90
11152;DHT22;5630;49.342;10.802;2024-01-25T14:12:37;9.60;99.90
11152;DHT22;5630;49.342;10.802;2024-01-25T14:15:03;9.60;99.90
11152;DHT22;5630;49.342;10.802;2024-01-25T14:17:29;9.60;99.90
11152;DHT22;5630;49.342;10.802;2024-01-25T14:19:54;9.40;99.90
11152;DHT22;5630;49.342;10.802;2024-01-25T14:22:20;9.40;99.90
11152;DHT22;5630;49.342;10.802;2024-01-25T14:24:46;9.30;99.90
11152;DHT22;5630;49.342;10.802;2024-01-25T14:27:12;9.30;99.90
11152;DHT22;5630;49.342;10.802;2024-01-25T14:29:38;9.20;99.90
11152;DHT22;5630;49.342;10.802;2024-01-25T14:32:04;9.20;99.90
11152;DHT22;5630;49.342;10.802;2024-01-25T14:34:29;9.10;99.90
11152;DHT22;5630;49.342;10.802;2024-01-25T14:36:55;9.10;99.90
11152;DHT22;5630;49.342;10.802;2024-01-25T14:39:20;9.10;99.90
11152;DHT22;5630;49.342;10.802;2024-01-25T14:41:46;9.20;99.90
11152;DHT22;5630;49.342;10.802;2024-01-25T14:44:12;9.10;99.90
11152;DHT22;5630;49.342;10.802;2024-01-25T14:46:38;9.00;99.90
11152;DHT22;5630;49.342;10.802;2024-01-25T14:49:04;9.00;99.90
11152;DHT22;5630;49.342;10.802;2024-01-25T14:51:30;9.00;99.90
11152;DHT22;5630;49.342;10.802;2024-01-25T14:53:56;8.90;99.90
11152;DHT22;5630;49.342;10.802;2024-01-25T14:56:21;8.90;99.90
11152;DHT22;5630;49.342;10.802;2024-01-25T14:58:47;9.00;99.90
11152;DHT22;5630;49.342;10.802;2024-01-25T15:01:16;9.00;99.90
11152;DHT22;5630;49.342;10.802;2024-01-25T15:03:47;8.90;99.90
11152;DHT22;5630;49.342;10.802;2024-01-25T15:06:13;8.90;99.90
11152;DHT22;5630;49.342;10.802;2024-01-25T15:08:39;8.90;99.90
11152;DHT22;5630;49.342;10.802;2024-01-25T15:11:06;8.80;99.90
11152;DHT22;5630;49.342;10.802;2024-01-25T15:13:31;8.70;99.90
11152;DHT22;5630;49.342;10.802;2024-01-25T15:15:57;8.80;99.90
11152;DHT22;5630;49.342;10.802;2024-01-25T15:18:22;8.70;99.90
11152;DHT22;5630;49.342;10.802;2024-01-25T15:20:48;8.70;99.90
11152;DHT22;5630;49.342;10.802;2024-01-25T15:23:14;8.70;99.90
11152;DHT22;5630;49.342;10.802;2024-01-25T15:25:40;8.60;99.90
11152;DHT22;5630;49.342;10.802;2024-01-25T15:28:05;8.70;99.90
11152;DHT22;5630;49.342;10.802;2024-01-25T15:30:31;8.70;99.90
11152;DHT22;5630;49.342;10.802;2024-01-25T15:32:56;8.60;99.90
11152;DHT22;5630;49.342;10.802;2024-01-25T15:35:22;8.50;99.90
11152;DHT22;5630;49.342;10.802;2024-01-25T15:37:48;8.50;99.90
11152;DHT22;5630;49.342;10.802;2024-01-25T15:40:14;8.50;99.90
11152;DHT22;5630;49.342;10.802;2024-01-25T15:42:42;8.40;99.90